sensor_id;sensor_type;location;lat;lon;timestamp;pressure;altitude;pressure_sealevel;temperature;humidity
75290;BME280;63883;48.996;20.804;2023-03-15T00:00:23;95151.19;;;6.55;85.70
75290;BME280;63883;48.996;20.804;2023-03-15T00:03:09;95161.59;;;6.47;86.01
75290;BME280;63883;48.996;20.804;2023-03-15T00:05:35;95154.00;;;6.47;86.24
75290;BME280;63883;48.996;20.804;2023-03-15T00:08:01;95160.59;;;6.51;86.06
75290;BME280;63883;48.996;20.804;2023-03-15T00:10:27;95165.91;;;6.44;86.55
75290;BME280;63883;48.996;20.804;2023-03-15T00:12:53;95169.38;;;6.41;86.59
75290;BME280;63883;48.996;20.804;2023-03-15T00:15:19;95175.25;;;6.42;86.36
75290;BME280;63883;48.996;20.804;2023-03-15T00:17:45;95179.31;;;6.47;86.37
75290;BME280;63883;48.996;20.804;2023-03-15T00:20:12;95180.19;;;6.46;86.53
75290;BME280;63883;48.996;20.804;2023-03-15T00:22:39;95181.16;;;6.42;86.58
75290;BME280;63883;48.996;20.804;2023-03-15T00:25:06;95174.50;;;6.40;86.86
75290;BME280;63883;48.996;20.804;2023-03-15T00:27:31;95163.69;;;6.35;86.89
75290;BME280;63883;48.996;20.804;2023-03-15T00:29:57;95173.72;;;6.38;87.07
75290;BME280;63883;48.996;20.804;2023-03-15T00:32:23;95181.91;;;6.46;86.83
75290;BME280;63883;48.996;20.804;2023-03-15T00:34:49;95180.16;;;6.48;86.48
75290;BME280;63883;48.996;20.804;2023-03-15T00:37:17;95181.28;;;6.39;86.93
75290;BME280;63883;48.996;20.804;2023-03-15T00:39:45;95179.78;;;6.34;87.00
75290;BME280;63883;48.996;20.804;2023-03-15T00:42:12;95174.03;;;6.28;87.40
75290;BME280;63883;48.996;20.804;2023-03-15T00:44:43;95184.16;;;6.28;87.54
75290;BME280;63883;48.996;20.804;2023-03-15T00:47:10;95179.22;;;6.25;87.36
75290;BME280;63883;48.996;20.804;2023-03-15T00:49:37;95161.56;;;6.22;87.58
75290;BME280;63883;48.996;20.804;2023-03-15T00:52:03;95163.31;;;6.20;87.63
75290;BME280;63883;48.996;20.804;2023-03-15T00:54:29;95170.22;;;6.17;88.28
75290;BME280;63883;48.996;20.804;2023-03-15T00:57:00;95167.72;;;6.15;88.27
75290;BME280;63883;48.996;20.804;2023-03-15T00:59:28;95170.09;;;6.20;88.21
75290;BME280;63883;48.996;20.804;2023-03-15T01:01:54;95172.38;;;6.27;87.67
75290;BME280;63883;48.996;20.804;2023-03-15T01:04:20;95172.56;;;6.21;87.37
75290;BME280;63883;48.996;20.804;2023-03-15T01:06:45;95175.97;;;6.20;87.55
75290;BME280;63883;48.996;20.804;2023-03-15T01:09:11;95175.06;;;6.23;87.82
75290;BME280;63883;48.996;20.804;2023-03-15T01:11:37;95169.38;;;6.16;87.84
75290;BME280;63883;48.996;20.804;2023-03-15T01:14:02;95175.22;;;6.18;88.24
75290;BME280;63883;48.996;20.804;2023-03-15T01:16:29;95184.59;;;6.15;88.21
75290;BME280;63883;48.996;20.804;2023-03-15T01:18:55;95183.06;;;6.11;88.83
75290;BME280;63883;48.996;20.804;2023-03-15T01:21:22;95182.25;;;6.10;88.60
75290;BME280;63883;48.996;20.804;2023-03-15T01:23:48;95178.91;;;6.08;88.44
75290;BME280;63883;48.996;20.804;2023-03-15T01:26:15;95179.78;;;6.07;88.72
75290;BME280;63883;48.996;20.804;2023-03-15T01:28:41;95182.38;;;6.06;88.86
75290;BME280;63883;48.996;20.804;2023-03-15T01:31:17;95194.16;;;6.07;88.59
75290;BME280;63883;48.996;20.804;2023-03-15T01:33:44;95193.41;;;6.05;88.84
75290;BME280;63883;48.996;20.804;2023-03-15T01:36:10;95201.53;;;6.13;88.93
75290;BME280;63883;48.996;20.804;2023-03-15T01:38:36;95202.31;;;6.15;88.71
75290;BME280;63883;48.996;20.804;2023-03-15T01:41:02;95194.66;;;6.18;88.52
75290;BME280;63883;48.996;20.804;2023-03-15T01:43:30;95196.22;;;6.20;88.46
75290;BME280;63883;48.996;20.804;2023-03-15T01:46:16;95198.75;;;6.20;88.21
75290;BME280;63883;48.996;20.804;2023-03-15T01:48:56;95203.16;;;6.15;88.58
75290;BME280;63883;48.996;20.804;2023-03-15T01:51:38;95196.59;;;6.10;88.62
75290;BME280;63883;48.996;20.804;2023-03-15T01:54:19;95201.75;;;6.07;88.88
75290;BME280;63883;48.996;20.804;2023-03-15T01:56:52;95207.59;;;6.09;88.86
75290;BME280;63883;48.996;20.804;2023-03-15T01:59:27;95223.59;;;6.09;88.88
75290;BME280;63883;48.996;20.804;2023-03-15T02:01:54;95230.22;;;6.13;88.85
75290;BME280;63883;48.996;20.804;2023-03-15T02:04:24;95220.09;;;6.13;88.68
75290;BME280;63883;48.996;20.804;2023-03-15T02:06:55;95225.28;;;6.10;88.82
75290;BME280;63883;48.996;20.804;2023-03-15T02:09:29;95221.13;;;6.08;88.86
75290;BME280;63883;48.996;20.804;2023-03-15T02:11:56;95216.84;;;6.10;89.09
75290;BME280;63883;48.996;20.804;2023-03-15T02:14:23;95217.75;;;6.07;89.52
75290;BME280;63883;48.996;20.804;2023-03-15T02:16:48;95218.75;;;6.03;89.73
75290;BME280;63883;48.996;20.804;2023-03-15T02:28:15;95240.53;;;6.07;90.11
75290;BME280;63883;48.996;20.804;2023-03-15T02:30:41;95245.56;;;6.09;89.81
75290;BME280;63883;48.996;20.804;2023-03-15T02:35:49;95246.66;;;6.00;89.77
75290;BME280;63883;48.996;20.804;2023-03-15T02:38:16;95241.66;;;5.99;89.91
75290;BME280;63883;48.996;20.804;2023-03-15T02:40:43;95244.41;;;5.91;90.35
75290;BME280;63883;48.996;20.804;2023-03-15T02:43:17;95250.22;;;5.95;90.51
75290;BME280;63883;48.996;20.804;2023-03-15T02:45:45;95247.69;;;5.95;90.60
75290;BME280;63883;48.996;20.804;2023-03-15T02:48:12;95260.50;;;5.90;90.65
75290;BME280;63883;48.996;20.804;2023-03-15T02:50:38;95269.88;;;5.85;91.04
75290;BME280;63883;48.996;20.804;2023-03-15T02:53:04;95269.81;;;5.88;91.38
75290;BME280;63883;48.996;20.804;2023-03-15T02:55:30;95269.00;;;5.86;91.84
75290;BME280;63883;48.996;20.804;2023-03-15T02:57:59;95270.66;;;5.88;92.25
75290;BME280;63883;48.996;20.804;2023-03-15T03:00:25;95267.31;;;5.86;92.59
75290;BME280;63883;48.996;20.804;2023-03-15T03:02:51;95274.06;;;5.86;92.65
75290;BME280;63883;48.996;20.804;2023-03-15T03:05:17;95278.19;;;5.90;93.01
75290;BME280;63883;48.996;20.804;2023-03-15T03:07:43;95276.19;;;6.00;92.98
75290;BME280;63883;48.996;20.804;2023-03-15T03:10:13;95285.50;;;5.99;93.13
75290;BME280;63883;48.996;20.804;2023-03-15T03:12:39;95296.56;;;5.97;93.52
75290;BME280;63883;48.996;20.804;2023-03-15T03:15:06;95293.66;;;6.09;92.87
75290;BME280;63883;48.996;20.804;2023-03-15T03:17:32;95290.69;;;6.22;89.33
75290;BME280;63883;48.996;20.804;2023-03-15T03:20:08;95297.56;;;6.45;85.87
75290;BME280;63883;48.996;20.804;2023-03-15T03:22:35;95307.44;;;6.53;83.13
75290;BME280;63883;48.996;20.804;2023-03-15T03:25:02;95315.09;;;6.51;83.27
75290;BME280;63883;48.996;20.804;2023-03-15T03:27:28;95316.72;;;6.54;82.91
75290;BME280;63883;48.996;20.804;2023-03-15T03:29:54;95318.53;;;6.49;82.27
75290;BME280;63883;48.996;20.804;2023-03-15T03:32:20;95326.13;;;6.49;82.50
75290;BME280;63883;48.996;20.804;2023-03-15T03:34:46;95331.63;;;6.35;81.66
75290;BME280;63883;48.996;20.804;2023-03-15T03:37:16;95334.25;;;6.34;81.12
75290;BME280;63883;48.996;20.804;2023-03-15T03:39:43;95341.91;;;6.31;81.56
75290;BME280;63883;48.996;20.804;2023-03-15T03:42:09;95353.69;;;6.32;81.12
75290;BME280;63883;48.996;20.804;2023-03-15T03:44:35;95353.09;;;6.23;81.77
75290;BME280;63883;48.996;20.804;2023-03-15T03:47:01;95363.03;;;6.30;80.86
75290;BME280;63883;48.996;20.804;2023-03-15T03:49:27;95360.03;;;6.18;82.11
75290;BME280;63883;48.996;20.804;2023-03-15T03:51:53;95367.72;;;6.14;82.75
75290;BME280;63883;48.996;20.804;2023-03-15T03:54:18;95366.06;;;6.13;82.76
75290;BME280;63883;48.996;20.804;2023-03-15T03:56:47;95372.97;;;6.08;83.11
75290;BME280;63883;48.996;20.804;2023-03-15T03:59:13;95370.44;;;6.08;83.16
75290;BME280;63883;48.996;20.804;2023-03-15T04:01:39;95370.63;;;6.02;83.20
75290;BME280;63883;48.996;20.804;2023-03-15T04:04:07;95379.91;;;6.01;83.50
75290;BME280;63883;48.996;20.804;2023-03-15T04:06:33;95383.31;;;6.00;83.83
75290;BME280;63883;48.996;20.804;2023-03-15T04:08:59;95391.03;;;5.97;84.12
75290;BME280;63883;48.996;20.804;2023-03-15T04:11:27;95396.22;;;5.91;82.09
75290;BME280;63883;48.996;20.804;2023-03-15T04:13:53;95398.44;;;6.03;78.42
75290;BME280;63883;48.996;20.804;2023-03-15T04:16:19;95399.16;;;6.07;77.78
75290;BME280;63883;48.996;20.804;2023-03-15T04:18:45;95395.09;;;6.01;78.85
75290;BME280;63883;48.996;20.804;2023-03-15T04:21:11;95407.09;;;5.95;80.69
75290;BME280;63883;48.996;20.804;2023-03-15T04:23:38;95407.34;;;5.84;82.86
75290;BME280;63883;48.996;20.804;2023-03-15T04:26:04;95408.19;;;5.84;82.88
75290;BME280;63883;48.996;20.804;2023-03-15T04:28:33;95417.75;;;5.75;83.19
75290;BME280;63883;48.996;20.804;2023-03-15T04:30:58;95411.06;;;5.72;82.97
75290;BME280;63883;48.996;20.804;2023-03-15T04:33:24;95420.47;;;5.69;82.43
75290;BME280;63883;48.996;20.804;2023-03-15T04:35:50;95425.59;;;5.66;81.92
75290;BME280;63883;48.996;20.804;2023-03-15T04:38:19;95420.03;;;5.53;81.98
75290;BME280;63883;48.996;20.804;2023-03-15T04:40:51;95427.25;;;5.34;82.23
75290;BME280;63883;48.996;20.804;2023-03-15T04:43:19;95429.88;;;5.31;82.18
75290;BME280;63883;48.996;20.804;2023-03-15T04:45:45;95439.53;;;5.16;81.67
75290;BME280;63883;48.996;20.804;2023-03-15T04:48:11;95439.84;;;5.03;81.63
75290;BME280;63883;48.996;20.804;2023-03-15T04:50:36;95455.06;;;5.00;80.69
75290;BME280;63883;48.996;20.804;2023-03-15T04:53:02;95456.97;;;4.91;80.77
75290;BME280;63883;48.996;20.804;2023-03-15T04:55:28;95463.97;;;4.80;80.48
75290;BME280;63883;48.996;20.804;2023-03-15T04:57:54;95470.09;;;4.69;81.31
75290;BME280;63883;48.996;20.804;2023-03-15T05:00:19;95477.09;;;4.58;81.13
75290;BME280;63883;48.996;20.804;2023-03-15T05:02:46;95482.19;;;4.55;81.07
75290;BME280;63883;48.996;20.804;2023-03-15T05:05:19;95486.69;;;4.43;80.74
75290;BME280;63883;48.996;20.804;2023-03-15T05:07:45;95490.22;;;4.34;81.20
75290;BME280;63883;48.996;20.804;2023-03-15T05:10:11;95485.31;;;4.26;81.77
75290;BME280;63883;48.996;20.804;2023-03-15T05:12:37;95495.38;;;4.29;81.16
75290;BME280;63883;48.996;20.804;2023-03-15T05:15:03;95495.47;;;4.25;81.02
75290;BME280;63883;48.996;20.804;2023-03-15T05:17:29;95507.56;;;4.09;81.25
75290;BME280;63883;48.996;20.804;2023-03-15T05:19:55;95517.03;;;3.97;81.75
75290;BME280;63883;48.996;20.804;2023-03-15T05:22:21;95516.16;;;3.99;81.75
75290;BME280;63883;48.996;20.804;2023-03-15T05:24:50;95519.59;;;3.95;82.02
75290;BME280;63883;48.996;20.804;2023-03-15T05:27:19;95527.22;;;3.92;81.87
75290;BME280;63883;48.996;20.804;2023-03-15T05:29:45;95521.44;;;3.87;82.09
75290;BME280;63883;48.996;20.804;2023-03-15T05:32:11;95534.94;;;3.84;82.77
75290;BME280;63883;48.996;20.804;2023-03-15T05:34:36;95536.72;;;3.79;83.04
75290;BME280;63883;48.996;20.804;2023-03-15T05:37:02;95542.72;;;3.72;82.47
75290;BME280;63883;48.996;20.804;2023-03-15T05:39:28;95541.06;;;3.70;82.09
75290;BME280;63883;48.996;20.804;2023-03-15T05:41:54;95551.25;;;3.65;81.96
75290;BME280;63883;48.996;20.804;2023-03-15T05:44:20;95557.34;;;3.52;82.43
75290;BME280;63883;48.996;20.804;2023-03-15T05:46:47;95564.97;;;3.47;82.45
75290;BME280;63883;48.996;20.804;2023-03-15T05:49:13;95573.34;;;3.51;82.77
75290;BME280;63883;48.996;20.804;2023-03-15T05:51:39;95574.31;;;3.42;82.62
75290;BME280;63883;48.996;20.804;2023-03-15T05:54:04;95575.88;;;3.48;83.26
75290;BME280;63883;48.996;20.804;2023-03-15T05:56:30;95576.81;;;3.44;83.36
75290;BME280;63883;48.996;20.804;2023-03-15T05:58:56;95572.63;;;3.41;83.02
75290;BME280;63883;48.996;20.804;2023-03-15T06:01:22;95577.78;;;3.34;82.84
75290;BME280;63883;48.996;20.804;2023-03-15T06:03:47;95571.00;;;3.39;83.49
75290;BME280;63883;48.996;20.804;2023-03-15T06:06:13;95583.56;;;3.42;83.59
75290;BME280;63883;48.996;20.804;2023-03-15T06:08:39;95593.66;;;3.40;83.92
75290;BME280;63883;48.996;20.804;2023-03-15T06:11:05;95588.63;;;3.39;83.04
75290;BME280;63883;48.996;20.804;2023-03-15T06:13:31;95602.03;;;3.41;82.83
75290;BME280;63883;48.996;20.804;2023-03-15T06:15:57;95605.38;;;3.43;82.80
75290;BME280;63883;48.996;20.804;2023-03-15T06:18:23;95605.31;;;3.46;82.91
75290;BME280;63883;48.996;20.804;2023-03-15T06:20:49;95602.91;;;3.40;81.98
75290;BME280;63883;48.996;20.804;2023-03-15T06:23:15;95620.44;;;3.46;82.18
75290;BME280;63883;48.996;20.804;2023-03-15T06:25:40;95623.03;;;3.43;81.81
75290;BME280;63883;48.996;20.804;2023-03-15T06:28:06;95627.94;;;3.50;81.48
75290;BME280;63883;48.996;20.804;2023-03-15T06:30:32;95628.72;;;3.54;81.02
75290;BME280;63883;48.996;20.804;2023-03-15T06:32:58;95636.25;;;3.56;81.03
75290;BME280;63883;48.996;20.804;2023-03-15T06:35:23;95641.38;;;3.52;81.26
75290;BME280;63883;48.996;20.804;2023-03-15T06:37:49;95646.66;;;3.34;81.20
75290;BME280;63883;48.996;20.804;2023-03-15T06:40:17;95649.41;;;3.19;81.25
75290;BME280;63883;48.996;20.804;2023-03-15T06:42:43;95653.63;;;3.17;82.25
75290;BME280;63883;48.996;20.804;2023-03-15T06:45:09;95665.47;;;3.10;81.13
75290;BME280;63883;48.996;20.804;2023-03-15T06:47:35;95657.91;;;3.10;81.34
75290;BME280;63883;48.996;20.804;2023-03-15T06:50:01;95662.09;;;3.10;81.80
75290;BME280;63883;48.996;20.804;2023-03-15T06:52:27;95653.69;;;3.11;81.54
75290;BME280;63883;48.996;20.804;2023-03-15T06:54:53;95652.81;;;3.15;81.27
75290;BME280;63883;48.996;20.804;2023-03-15T06:57:18;95655.28;;;3.18;80.66
75290;BME280;63883;48.996;20.804;2023-03-15T06:59:44;95665.44;;;3.13;81.73
75290;BME280;63883;48.996;20.804;2023-03-15T07:02:14;95668.69;;;3.22;81.05
75290;BME280;63883;48.996;20.804;2023-03-15T07:04:41;95671.25;;;3.19;82.11
75290;BME280;63883;48.996;20.804;2023-03-15T07:07:10;95672.69;;;3.35;81.49
75290;BME280;63883;48.996;20.804;2023-03-15T07:09:36;95676.06;;;3.35;81.35
75290;BME280;63883;48.996;20.804;2023-03-15T07:12:02;95681.84;;;3.42;80.52
75290;BME280;63883;48.996;20.804;2023-03-15T07:14:28;95678.38;;;3.50;80.35
75290;BME280;63883;48.996;20.804;2023-03-15T07:16:53;95682.59;;;3.47;80.30
75290;BME280;63883;48.996;20.804;2023-03-15T07:19:19;95689.41;;;3.42;80.09
75290;BME280;63883;48.996;20.804;2023-03-15T07:21:45;95687.72;;;3.41;80.43
75290;BME280;63883;48.996;20.804;2023-03-15T07:24:11;95696.19;;;3.38;80.14
75290;BME280;63883;48.996;20.804;2023-03-15T07:26:36;95687.78;;;3.38;79.94
75290;BME280;63883;48.996;20.804;2023-03-15T07:29:02;95695.38;;;3.35;81.36
75290;BME280;63883;48.996;20.804;2023-03-15T07:31:28;95693.63;;;3.40;80.54
75290;BME280;63883;48.996;20.804;2023-03-15T07:33:54;95691.91;;;3.43;80.60
75290;BME280;63883;48.996;20.804;2023-03-15T07:36:19;95700.22;;;3.50;80.22
75290;BME280;63883;48.996;20.804;2023-03-15T07:38:46;95696.84;;;3.49;80.36
75290;BME280;63883;48.996;20.804;2023-03-15T07:41:12;95703.59;;;3.47;80.09
75290;BME280;63883;48.996;20.804;2023-03-15T07:43:38;95695.19;;;3.47;79.38
75290;BME280;63883;48.996;20.804;2023-03-15T07:46:04;95707.78;;;3.50;78.73
75290;BME280;63883;48.996;20.804;2023-03-15T07:48:30;95709.56;;;3.42;79.06
75290;BME280;63883;48.996;20.804;2023-03-15T07:50:56;95711.97;;;3.51;77.69
75290;BME280;63883;48.996;20.804;2023-03-15T07:53:22;95724.56;;;3.52;78.71
75290;BME280;63883;48.996;20.804;2023-03-15T07:55:47;95719.44;;;3.56;76.92
75290;BME280;63883;48.996;20.804;2023-03-15T07:58:14;95721.97;;;3.57;77.97
75290;BME280;63883;48.996;20.804;2023-03-15T08:00:40;95727.00;;;3.57;78.04
75290;BME280;63883;48.996;20.804;2023-03-15T08:03:06;95727.81;;;3.59;78.75
75290;BME280;63883;48.996;20.804;2023-03-15T08:05:33;95727.00;;;3.57;76.76
75290;BME280;63883;48.996;20.804;2023-03-15T08:07:59;95742.97;;;3.58;76.96
75290;BME280;63883;48.996;20.804;2023-03-15T08:10:24;95748.84;;;3.57;76.87
75290;BME280;63883;48.996;20.804;2023-03-15T08:12:51;95749.69;;;3.57;76.57
75290;BME280;63883;48.996;20.804;2023-03-15T08:15:17;95756.38;;;3.60;74.76
75290;BME280;63883;48.996;20.804;2023-03-15T08:17:43;95753.03;;;3.58;75.62
75290;BME280;63883;48.996;20.804;2023-03-15T08:20:10;95758.06;;;3.59;74.49
75290;BME280;63883;48.996;20.804;2023-03-15T08:22:37;95754.81;;;3.51;74.32
75290;BME280;63883;48.996;20.804;2023-03-15T08:25:03;95757.38;;;3.48;71.55
75290;BME280;63883;48.996;20.804;2023-03-15T08:27:29;95762.47;;;3.45;72.03
75290;BME280;63883;48.996;20.804;2023-03-15T08:29:55;95762.41;;;3.46;72.49
75290;BME280;63883;48.996;20.804;2023-03-15T08:32:21;95774.09;;;3.53;72.75
75290;BME280;63883;48.996;20.804;2023-03-15T08:34:47;95775.16;;;3.36;71.13
75290;BME280;63883;48.996;20.804;2023-03-15T08:37:13;95779.28;;;3.43;71.70
75290;BME280;63883;48.996;20.804;2023-03-15T08:39:38;95777.59;;;3.45;71.83
75290;BME280;63883;48.996;20.804;2023-03-15T08:42:05;95775.84;;;3.48;72.79
75290;BME280;63883;48.996;20.804;2023-03-15T08:44:31;95785.19;;;3.42;74.24
75290;BME280;63883;48.996;20.804;2023-03-15T08:46:57;95783.47;;;3.44;73.61
75290;BME280;63883;48.996;20.804;2023-03-15T08:49:23;95797.69;;;3.46;72.33
75290;BME280;63883;48.996;20.804;2023-03-15T08:51:50;95795.22;;;3.45;71.67
75290;BME280;63883;48.996;20.804;2023-03-15T08:54:16;95801.06;;;3.47;71.35
75290;BME280;63883;48.996;20.804;2023-03-15T08:56:42;95805.34;;;3.42;71.57
75290;BME280;63883;48.996;20.804;2023-03-15T08:59:08;95817.19;;;3.35;73.58
75290;BME280;63883;48.996;20.804;2023-03-15T09:01:35;95821.41;;;3.32;73.97
75290;BME280;63883;48.996;20.804;2023-03-15T09:04:00;95827.28;;;3.34;73.21
75290;BME280;63883;48.996;20.804;2023-03-15T09:06:27;95835.91;;;3.11;74.01
75290;BME280;63883;48.996;20.804;2023-03-15T09:08:53;95837.59;;;3.12;73.76
75290;BME280;63883;48.996;20.804;2023-03-15T09:11:20;95827.56;;;3.06;73.69
75290;BME280;63883;48.996;20.804;2023-03-15T09:13:46;95848.63;;;3.02;72.74
75290;BME280;63883;48.996;20.804;2023-03-15T09:16:12;95844.50;;;2.95;74.86
75290;BME280;63883;48.996;20.804;2023-03-15T09:18:38;95847.16;;;2.79;74.61
75290;BME280;63883;48.996;20.804;2023-03-15T09:21:06;95842.06;;;2.82;74.36
75290;BME280;63883;48.996;20.804;2023-03-15T09:23:32;95854.72;;;2.77;74.10
75290;BME280;63883;48.996;20.804;2023-03-15T09:25:58;95865.75;;;2.61;75.16
75290;BME280;63883;48.996;20.804;2023-03-15T09:28:23;95866.66;;;2.54;76.43
75290;BME280;63883;48.996;20.804;2023-03-15T09:30:52;95871.63;;;2.60;77.18
75290;BME280;63883;48.996;20.804;2023-03-15T09:33:19;95866.53;;;2.72;77.00
75290;BME280;63883;48.996;20.804;2023-03-15T09:35:55;95865.69;;;2.71;77.22
75290;BME280;63883;48.996;20.804;2023-03-15T09:38:21;95870.66;;;2.78;75.84
75290;BME280;63883;48.996;20.804;2023-03-15T09:40:48;95863.19;;;2.70;76.23
75290;BME280;63883;48.996;20.804;2023-03-15T09:48:35;95876.47;;;2.87;74.54
75290;BME280;63883;48.996;20.804;2023-03-15T09:53:57;95871.22;;;3.08;76.85
75290;BME280;63883;48.996;20.804;2023-03-15T09:59:05;95865.22;;;3.22;74.00
75290;BME280;63883;48.996;20.804;2023-03-15T10:01:35;95882.78;;;3.26;74.35
75290;BME280;63883;48.996;20.804;2023-03-15T10:04:09;95879.34;;;3.35;73.73
75290;BME280;63883;48.996;20.804;2023-03-15T10:06:37;95887.84;;;3.25;74.01
75290;BME280;63883;48.996;20.804;2023-03-15T10:09:14;95883.78;;;3.11;72.94
75290;BME280;63883;48.996;20.804;2023-03-15T10:17:14;95880.63;;;2.91;74.54
75290;BME280;63883;48.996;20.804;2023-03-15T10:19:52;95882.06;;;3.15;74.83
75290;BME280;63883;48.996;20.804;2023-03-15T10:22:37;95882.69;;;3.35;73.25
75290;BME280;63883;48.996;20.804;2023-03-15T10:27:41;95891.16;;;3.30;73.61
75290;BME280;63883;48.996;20.804;2023-03-15T10:30:26;95889.41;;;3.38;73.36
75290;BME280;63883;48.996;20.804;2023-03-15T10:33:30;95891.00;;;3.45;71.16
75290;BME280;63883;48.996;20.804;2023-03-15T10:35:57;95896.78;;;3.53;71.27
75290;BME280;63883;48.996;20.804;2023-03-15T10:38:24;95901.09;;;3.45;71.40
75290;BME280;63883;48.996;20.804;2023-03-15T10:40:53;95910.03;;;3.69;71.74
75290;BME280;63883;48.996;20.804;2023-03-15T10:43:29;95910.19;;;3.58;68.81
75290;BME280;63883;48.996;20.804;2023-03-15T10:46:06;95911.88;;;3.58;70.29
75290;BME280;63883;48.996;20.804;2023-03-15T10:48:34;95906.56;;;3.79;70.23
75290;BME280;63883;48.996;20.804;2023-03-15T10:51:12;95895.56;;;3.86;68.59
75290;BME280;63883;48.996;20.804;2023-03-15T10:54:00;95920.72;;;3.90;68.35
75290;BME280;63883;48.996;20.804;2023-03-15T10:56:30;95920.59;;;4.00;66.71
75290;BME280;63883;48.996;20.804;2023-03-15T10:58:57;95916.44;;;3.97;66.44
75290;BME280;63883;48.996;20.804;2023-03-15T11:01:31;95919.66;;;4.10;66.23
75290;BME280;63883;48.996;20.804;2023-03-15T11:06:27;95939.75;;;4.17;62.58
75290;BME280;63883;48.996;20.804;2023-03-15T11:09:07;95942.31;;;4.13;62.99
75290;BME280;63883;48.996;20.804;2023-03-15T11:11:58;95938.25;;;4.01;63.64
75290;BME280;63883;48.996;20.804;2023-03-15T11:14:32;95940.84;;;3.95;63.03
75290;BME280;63883;48.996;20.804;2023-03-15T11:16:58;95935.31;;;3.66;62.86
75290;BME280;63883;48.996;20.804;2023-03-15T11:19:27;95942.22;;;3.47;63.86
75290;BME280;63883;48.996;20.804;2023-03-15T11:21:55;95944.50;;;3.68;65.00
75290;BME280;63883;48.996;20.804;2023-03-15T11:24:32;95952.94;;;3.67;64.04
75290;BME280;63883;48.996;20.804;2023-03-15T11:27:01;95950.44;;;3.66;61.47
75290;BME280;63883;48.996;20.804;2023-03-15T11:29:32;95950.47;;;3.61;64.21
75290;BME280;63883;48.996;20.804;2023-03-15T11:32:02;95951.34;;;3.59;62.96
75290;BME280;63883;48.996;20.804;2023-03-15T11:36:58;95965.84;;;3.37;63.71
75290;BME280;63883;48.996;20.804;2023-03-15T11:42:29;95968.38;;;3.37;63.11
75290;BME280;63883;48.996;20.804;2023-03-15T11:45:01;95972.31;;;3.62;64.42
75290;BME280;63883;48.996;20.804;2023-03-15T11:47:51;95970.56;;;3.69;64.44
75290;BME280;63883;48.996;20.804;2023-03-15T11:50:19;95973.00;;;3.75;63.95
75290;BME280;63883;48.996;20.804;2023-03-15T11:52:49;95967.09;;;3.80;64.58
75290;BME280;63883;48.996;20.804;2023-03-15T11:55:19;95964.44;;;3.89;62.79
75290;BME280;63883;48.996;20.804;2023-03-15T11:57:47;95973.53;;;4.04;63.28
75290;BME280;63883;48.996;20.804;2023-03-15T12:02:56;95980.97;;;4.15;58.38
75290;BME280;63883;48.996;20.804;2023-03-15T12:08:21;95981.06;;;4.07;58.80
75290;BME280;63883;48.996;20.804;2023-03-15T12:10:50;95975.97;;;4.12;59.98
75290;BME280;63883;48.996;20.804;2023-03-15T12:13:19;95977.81;;;3.98;58.24
75290;BME280;63883;48.996;20.804;2023-03-15T12:15:47;95965.94;;;4.04;58.69
75290;BME280;63883;48.996;20.804;2023-03-15T12:18:15;95968.44;;;4.10;60.76
75290;BME280;63883;48.996;20.804;2023-03-15T12:21:11;95971.03;;;4.03;57.85
75290;BME280;63883;48.996;20.804;2023-03-15T12:23:41;95962.75;;;3.93;59.15
75290;BME280;63883;48.996;20.804;2023-03-15T12:26:31;95960.13;;;4.02;59.45
75290;BME280;63883;48.996;20.804;2023-03-15T12:32:26;95959.19;;;4.08;57.42
75290;BME280;63883;48.996;20.804;2023-03-15T12:37:21;95957.22;;;4.31;56.61
75290;BME280;63883;48.996;20.804;2023-03-15T12:39:52;95963.03;;;4.36;57.52
75290;BME280;63883;48.996;20.804;2023-03-15T12:47:44;95970.72;;;4.27;57.38
75290;BME280;63883;48.996;20.804;2023-03-15T12:53:03;95975.19;;;4.08;55.07
75290;BME280;63883;48.996;20.804;2023-03-15T12:55:33;95972.66;;;4.07;55.96
75290;BME280;63883;48.996;20.804;2023-03-15T12:58:01;95981.09;;;4.06;56.82
75290;BME280;63883;48.996;20.804;2023-03-15T13:00:30;95976.22;;;3.90;56.71
75290;BME280;63883;48.996;20.804;2023-03-15T13:11:36;95995.66;;;3.81;55.99
75290;BME280;63883;48.996;20.804;2023-03-15T13:16:34;95995.75;;;3.73;56.72
75290;BME280;63883;48.996;20.804;2023-03-15T13:30:32;95998.56;;;3.43;56.66
75290;BME280;63883;48.996;20.804;2023-03-15T13:36:18;96015.16;;;3.62;57.42
75290;BME280;63883;48.996;20.804;2023-03-15T13:41:23;96015.88;;;3.76;57.06
75290;BME280;63883;48.996;20.804;2023-03-15T13:43:51;96019.16;;;3.84;56.95
75290;BME280;63883;48.996;20.804;2023-03-15T13:46:20;96026.72;;;3.87;57.11
75290;BME280;63883;48.996;20.804;2023-03-15T13:48:49;96019.97;;;3.88;57.60
75290;BME280;63883;48.996;20.804;2023-03-15T13:51:24;96029.16;;;3.92;57.56
75290;BME280;63883;48.996;20.804;2023-03-15T13:53:56;96023.41;;;3.79;54.96
75290;BME280;63883;48.996;20.804;2023-03-15T13:56:31;96025.88;;;3.84;55.21
75290;BME280;63883;48.996;20.804;2023-03-15T13:58:57;96031.78;;;3.84;54.42
75290;BME280;63883;48.996;20.804;2023-03-15T14:01:25;96019.91;;;3.96;55.14
75290;BME280;63883;48.996;20.804;2023-03-15T14:04:13;96030.78;;;3.98;54.68
75290;BME280;63883;48.996;20.804;2023-03-15T14:06:40;96033.31;;;3.98;55.90
75290;BME280;63883;48.996;20.804;2023-03-15T14:09:19;96031.78;;;3.84;54.94
75290;BME280;63883;48.996;20.804;2023-03-15T14:11:59;96031.00;;;3.79;55.30
75290;BME280;63883;48.996;20.804;2023-03-15T14:14:27;96037.78;;;3.74;55.01
75290;BME280;63883;48.996;20.804;2023-03-15T14:16:56;96039.38;;;3.80;56.33
75290;BME280;63883;48.996;20.804;2023-03-15T14:19:24;96033.50;;;3.79;56.86
75290;BME280;63883;48.996;20.804;2023-03-15T14:21:56;96040.13;;;3.89;55.69
75290;BME280;63883;48.996;20.804;2023-03-15T14:24:29;96043.53;;;3.85;55.66
75290;BME280;63883;48.996;20.804;2023-03-15T14:26:57;96041.94;;;3.75;55.95
75290;BME280;63883;48.996;20.804;2023-03-15T14:29:31;96047.81;;;3.79;56.54
75290;BME280;63883;48.996;20.804;2023-03-15T14:32:02;96044.44;;;3.78;56.73